sensor_id;sensor_type;location;lat;lon;timestamp;temperature;humidity
63802;DHT22;49949;43.060;25.624;2022-07-17T00:00:14;21.90;96.80
63802;DHT22;49949;43.060;25.624;2022-07-17T00:02:40;21.60;96.40
63802;DHT22;49949;43.060;25.624;2022-07-17T00:05:06;21.40;96.10
63802;DHT22;49949;43.060;25.624;2022-07-17T00:07:32;21.20;95.90
63802;DHT22;49949;43.060;25.624;2022-07-17T00:09:58;20.10;95.30
63802;DHT22;49949;43.060;25.624;2022-07-17T00:12:24;21.40;96.80
63802;DHT22;49949;43.060;25.624;2022-07-17T00:14:49;21.10;97.40
63802;DHT22;49949;43.060;25.624;2022-07-17T00:17:15;21.00;98.30
63802;DHT22;49949;43.060;25.624;2022-07-17T00:19:42;21.00;97.10
63802;DHT22;49949;43.060;25.624;2022-07-17T00:22:08;20.90;97.90
63802;DHT22;49949;43.060;25.624;2022-07-17T00:24:34;20.90;98.30
63802;DHT22;49949;43.060;25.624;2022-07-17T00:27:00;21.00;98.10
63802;DHT22;49949;43.060;25.624;2022-07-17T00:29:26;21.00;96.10
63802;DHT22;49949;43.060;25.624;2022-07-17T00:31:52;21.00;96.30
63802;DHT22;49949;43.060;25.624;2022-07-17T00:34:17;20.80;98.30
63802;DHT22;49949;43.060;25.624;2022-07-17T00:36:43;20.80;99.00
63802;DHT22;49949;43.060;25.624;2022-07-17T00:39:09;20.80;98.80
63802;DHT22;49949;43.060;25.624;2022-07-17T00:41:35;20.70;98.90
63802;DHT22;49949;43.060;25.624;2022-07-17T00:44:10;20.70;99.50
63802;DHT22;49949;43.060;25.624;2022-07-17T00:46:38;20.50;99.60
63802;DHT22;49949;43.060;25.624;2022-07-17T00:49:04;20.40;99.90
63802;DHT22;49949;43.060;25.624;2022-07-17T00:51:31;20.40;99.90
63802;DHT22;49949;43.060;25.624;2022-07-17T00:53:58;20.30;99.90
63802;DHT22;49949;43.060;25.624;2022-07-17T00:56:24;20.30;99.90
63802;DHT22;49949;43.060;25.624;2022-07-17T00:58:50;20.30;99.90
63802;DHT22;49949;43.060;25.624;2022-07-17T01:01:17;20.30;99.90
63802;DHT22;49949;43.060;25.624;2022-07-17T01:03:43;20.30;99.90
63802;DHT22;49949;43.060;25.624;2022-07-17T01:06:09;20.30;99.90
63802;DHT22;49949;43.060;25.624;2022-07-17T01:08:35;20.20;99.90
63802;DHT22;49949;43.060;25.624;2022-07-17T01:11:02;20.10;99.90
63802;DHT22;49949;43.060;25.624;2022-07-17T01:13:28;20.00;99.90
63802;DHT22;49949;43.060;25.624;2022-07-17T01:15:54;19.90;99.90
63802;DHT22;49949;43.060;25.624;2022-07-17T01:18:20;19.90;99.90
63802;DHT22;49949;43.060;25.624;2022-07-17T01:20:48;19.90;99.90
63802;DHT22;49949;43.060;25.624;2022-07-17T01:23:16;19.60;99.90
63802;DHT22;49949;43.060;25.624;2022-07-17T01:25:42;19.80;99.90
63802;DHT22;49949;43.060;25.624;2022-07-17T01:28:08;19.70;99.90
63802;DHT22;49949;43.060;25.624;2022-07-17T01:30:35;19.80;99.90
63802;DHT22;49949;43.060;25.624;2022-07-17T01:33:01;20.00;99.90
63802;DHT22;49949;43.060;25.624;2022-07-17T01:35:27;19.70;99.90
63802;DHT22;49949;43.060;25.624;2022-07-17T01:37:53;19.80;99.90
63802;DHT22;49949;43.060;25.624;2022-07-17T01:40:19;19.90;99.90
63802;DHT22;49949;43.060;25.624;2022-07-17T01:42:47;19.80;99.90
63802;DHT22;49949;43.060;25.624;2022-07-17T01:45:14;19.80;99.90
63802;DHT22;49949;43.060;25.624;2022-07-17T01:47:40;19.80;99.90
63802;DHT22;49949;43.060;25.624;2022-07-17T01:50:07;19.80;99.90
63802;DHT22;49949;43.060;25.624;2022-07-17T01:52:40;19.70;99.90
63802;DHT22;49949;43.060;25.624;2022-07-17T01:55:07;19.70;99.90
63802;DHT22;49949;43.060;25.624;2022-07-17T01:57:33;19.70;99.90
63802;DHT22;49949;43.060;25.624;2022-07-17T02:00:00;19.60;99.90
63802;DHT22;49949;43.060;25.624;2022-07-17T02:02:26;19.50;99.90
63802;DHT22;49949;43.060;25.624;2022-07-17T02:04:52;19.50;99.90
63802;DHT22;49949;43.060;25.624;2022-07-17T02:07:17;19.30;99.90
63802;DHT22;49949;43.060;25.624;2022-07-17T02:09:43;19.30;99.90
63802;DHT22;49949;43.060;25.624;2022-07-17T02:12:09;18.70;99.90
63802;DHT22;49949;43.060;25.624;2022-07-17T02:14:35;19.50;99.90
63802;DHT22;49949;43.060;25.624;2022-07-17T02:17:01;19.50;99.90
63802;DHT22;49949;43.060;25.624;2022-07-17T02:19:27;19.50;99.90
63802;DHT22;49949;43.060;25.624;2022-07-17T02:21:52;19.60;99.90
63802;DHT22;49949;43.060;25.624;2022-07-17T02:24:18;19.40;99.90
63802;DHT22;49949;43.060;25.624;2022-07-17T02:26:44;18.40;99.90
63802;DHT22;49949;43.060;25.624;2022-07-17T02:29:10;17.80;99.90
63802;DHT22;49949;43.060;25.624;2022-07-17T02:31:35;19.20;99.90
63802;DHT22;49949;43.060;25.624;2022-07-17T02:34:01;19.20;99.90
63802;DHT22;49949;43.060;25.624;2022-07-17T02:36:27;17.70;99.90
63802;DHT22;49949;43.060;25.624;2022-07-17T02:38:53;19.10;99.90
63802;DHT22;49949;43.060;25.624;2022-07-17T02:41:19;19.10;99.90
63802;DHT22;49949;43.060;25.624;2022-07-17T02:43:44;19.10;99.90
63802;DHT22;49949;43.060;25.624;2022-07-17T02:46:10;19.10;99.90
63802;DHT22;49949;43.060;25.624;2022-07-17T02:48:36;20.90;99.90
63802;DHT22;49949;43.060;25.624;2022-07-17T02:51:02;19.10;99.90
63802;DHT22;49949;43.060;25.624;2022-07-17T02:53:27;19.00;99.90
63802;DHT22;49949;43.060;25.624;2022-07-17T02:55:53;19.00;99.90
63802;DHT22;49949;43.060;25.624;2022-07-17T02:58:19;18.90;99.90
63802;DHT22;49949;43.060;25.624;2022-07-17T03:00:45;19.00;99.90
63802;DHT22;49949;43.060;25.624;2022-07-17T03:03:10;18.90;99.90
63802;DHT22;49949;43.060;25.624;2022-07-17T03:05:36;18.90;99.90
63802;DHT22;49949;43.060;25.624;2022-07-17T03:08:02;18.90;99.90
63802;DHT22;49949;43.060;25.624;2022-07-17T03:10:27;18.90;99.90
63802;DHT22;49949;43.060;25.624;2022-07-17T03:12:53;18.90;99.90
63802;DHT22;49949;43.060;25.624;2022-07-17T03:15:19;18.80;99.90
63802;DHT22;49949;43.060;25.624;2022-07-17T03:17:44;18.80;99.90
63802;DHT22;49949;43.060;25.624;2022-07-17T03:20:10;18.70;99.90
63802;DHT22;49949;43.060;25.624;2022-07-17T03:22:36;18.70;99.90
63802;DHT22;49949;43.060;25.624;2022-07-17T03:25:02;18.60;99.90
63802;DHT22;49949;43.060;25.624;2022-07-17T03:27:28;18.50;99.90
63802;DHT22;49949;43.060;25.624;2022-07-17T03:29:54;18.50;99.90
63802;DHT22;49949;43.060;25.624;2022-07-17T03:32:20;18.60;99.90
63802;DHT22;49949;43.060;25.624;2022-07-17T03:34:46;18.80;99.90
63802;DHT22;49949;43.060;25.624;2022-07-17T03:37:12;19.20;99.90
63802;DHT22;49949;43.060;25.624;2022-07-17T03:39:39;19.40;99.90
63802;DHT22;49949;43.060;25.624;2022-07-17T03:42:05;19.60;99.90
63802;DHT22;49949;43.060;25.624;2022-07-17T03:44:31;19.70;99.90
63802;DHT22;49949;43.060;25.624;2022-07-17T03:46:56;20.10;99.90
63802;DHT22;49949;43.060;25.624;2022-07-17T03:49:22;20.50;99.90
63802;DHT22;49949;43.060;25.624;2022-07-17T03:51:48;20.90;97.80
63802;DHT22;49949;43.060;25.624;2022-07-17T03:54:13;21.20;96.60
63802;DHT22;49949;43.060;25.624;2022-07-17T03:56:39;21.10;96.20
63802;DHT22;49949;43.060;25.624;2022-07-17T03:59:05;20.90;96.20
63802;DHT22;49949;43.060;25.624;2022-07-17T04:01:31;20.80;96.80
63802;DHT22;49949;43.060;25.624;2022-07-17T04:03:56;20.80;96.90
63802;DHT22;49949;43.060;25.624;2022-07-17T04:06:22;20.70;97.20
63802;DHT22;49949;43.060;25.624;2022-07-17T04:08:48;20.70;97.80
63802;DHT22;49949;43.060;25.624;2022-07-17T04:11:13;21.10;96.00
63802;DHT22;49949;43.060;25.624;2022-07-17T04:13:39;21.50;93.00
63802;DHT22;49949;43.060;25.624;2022-07-17T04:16:05;21.80;92.10
63802;DHT22;49949;43.060;25.624;2022-07-17T04:18:35;21.80;92.50
63802;DHT22;49949;43.060;25.624;2022-07-17T04:21:06;22.20;90.70
63802;DHT22;49949;43.060;25.624;2022-07-17T04:23:33;22.60;88.10
63802;DHT22;49949;43.060;25.624;2022-07-17T04:25:59;22.70;86.50
63802;DHT22;49949;43.060;25.624;2022-07-17T04:28:25;22.80;87.10
63802;DHT22;49949;43.060;25.624;2022-07-17T04:30:50;22.70;88.00
63802;DHT22;49949;43.060;25.624;2022-07-17T04:33:16;22.80;87.90
63802;DHT22;49949;43.060;25.624;2022-07-17T04:35:42;23.50;84.60
63802;DHT22;49949;43.060;25.624;2022-07-17T04:38:08;23.90;79.10
63802;DHT22;49949;43.060;25.624;2022-07-17T04:40:35;24.60;71.90
63802;DHT22;49949;43.060;25.624;2022-07-17T04:43:02;25.10;70.40
63802;DHT22;49949;43.060;25.624;2022-07-17T04:45:28;25.60;64.80
63802;DHT22;49949;43.060;25.624;2022-07-17T04:47:54;25.90;62.00
63802;DHT22;49949;43.060;25.624;2022-07-17T04:50:20;26.30;60.70
63802;DHT22;49949;43.060;25.624;2022-07-17T04:52:46;26.70;60.80
63802;DHT22;49949;43.060;25.624;2022-07-17T04:55:11;27.00;58.00
63802;DHT22;49949;43.060;25.624;2022-07-17T04:57:38;27.10;57.30
63802;DHT22;49949;43.060;25.624;2022-07-17T05:00:06;27.00;55.70
63802;DHT22;49949;43.060;25.624;2022-07-17T05:02:33;27.30;55.30
63802;DHT22;49949;43.060;25.624;2022-07-17T05:04:59;27.60;54.70
63802;DHT22;49949;43.060;25.624;2022-07-17T05:07:25;27.60;53.00
63802;DHT22;49949;43.060;25.624;2022-07-17T05:09:50;27.50;53.70
63802;DHT22;49949;43.060;25.624;2022-07-17T05:12:16;27.80;53.10
63802;DHT22;49949;43.060;25.624;2022-07-17T05:14:42;27.80;51.50
63802;DHT22;49949;43.060;25.624;2022-07-17T05:17:08;27.90;51.20
63802;DHT22;49949;43.060;25.624;2022-07-17T05:19:34;28.00;52.00
63802;DHT22;49949;43.060;25.624;2022-07-17T05:22:00;28.00;50.50
63802;DHT22;49949;43.060;25.624;2022-07-17T05:24:26;28.10;50.30
63802;DHT22;49949;43.060;25.624;2022-07-17T05:26:52;28.00;50.40
63802;DHT22;49949;43.060;25.624;2022-07-17T05:29:18;28.10;50.50
63802;DHT22;49949;43.060;25.624;2022-07-17T05:31:43;28.20;50.30
63802;DHT22;49949;43.060;25.624;2022-07-17T05:34:09;28.40;50.30
63802;DHT22;49949;43.060;25.624;2022-07-17T05:36:35;28.40;49.30
63802;DHT22;49949;43.060;25.624;2022-07-17T05:39:00;28.30;49.70
63802;DHT22;49949;43.060;25.624;2022-07-17T05:41:26;28.30;48.30
63802;DHT22;49949;43.060;25.624;2022-07-17T05:43:52;28.50;48.90
63802;DHT22;49949;43.060;25.624;2022-07-17T05:46:18;28.40;48.60
63802;DHT22;49949;43.060;25.624;2022-07-17T05:48:43;28.50;48.40
63802;DHT22;49949;43.060;25.624;2022-07-17T05:51:09;28.20;48.50
63802;DHT22;49949;43.060;25.624;2022-07-17T05:53:35;28.20;49.00
63802;DHT22;49949;43.060;25.624;2022-07-17T05:56:00;28.10;49.40
63802;DHT22;49949;43.060;25.624;2022-07-17T05:58:26;28.10;49.50
63802;DHT22;49949;43.060;25.624;2022-07-17T06:00:52;28.00;49.80
63802;DHT22;49949;43.060;25.624;2022-07-17T06:03:19;28.00;50.80
63802;DHT22;49949;43.060;25.624;2022-07-17T06:05:45;28.00;50.40
63802;DHT22;49949;43.060;25.624;2022-07-17T06:08:10;28.10;50.60
63802;DHT22;49949;43.060;25.624;2022-07-17T06:10:36;28.30;50.20
63802;DHT22;49949;43.060;25.624;2022-07-17T06:13:04;28.30;50.30
63802;DHT22;49949;43.060;25.624;2022-07-17T06:15:30;28.30;51.60
63802;DHT22;49949;43.060;25.624;2022-07-17T06:18:03;28.50;50.70
63802;DHT22;49949;43.060;25.624;2022-07-17T06:20:29;28.50;50.20
63802;DHT22;49949;43.060;25.624;2022-07-17T06:22:55;28.70;51.20
63802;DHT22;49949;43.060;25.624;2022-07-17T06:25:20;28.70;50.70
63802;DHT22;49949;43.060;25.624;2022-07-17T06:27:46;28.80;51.30
63802;DHT22;49949;43.060;25.624;2022-07-17T06:30:14;28.70;51.80
63802;DHT22;49949;43.060;25.624;2022-07-17T06:32:40;28.70;51.70
63802;DHT22;49949;43.060;25.624;2022-07-17T06:35:06;28.70;51.80
63802;DHT22;49949;43.060;25.624;2022-07-17T06:37:32;28.90;51.50
63802;DHT22;49949;43.060;25.624;2022-07-17T06:39:58;28.90;51.40
63802;DHT22;49949;43.060;25.624;2022-07-17T06:42:24;28.50;51.80
63802;DHT22;49949;43.060;25.624;2022-07-17T06:44:50;28.40;51.80
63802;DHT22;49949;43.060;25.624;2022-07-17T06:47:15;28.30;52.30
63802;DHT22;49949;43.060;25.624;2022-07-17T06:49:41;28.30;53.70
63802;DHT22;49949;43.060;25.624;2022-07-17T06:52:07;28.60;52.60
63802;DHT22;49949;43.060;25.624;2022-07-17T06:54:32;28.80;52.00
63802;DHT22;49949;43.060;25.624;2022-07-17T06:56:58;29.00;52.50
63802;DHT22;49949;43.060;25.624;2022-07-17T06:59:24;29.30;52.00
63802;DHT22;49949;43.060;25.624;2022-07-17T07:01:50;29.30;51.20
63802;DHT22;49949;43.060;25.624;2022-07-17T07:04:15;29.10;52.20
63802;DHT22;49949;43.060;25.624;2022-07-17T07:06:41;28.90;52.40
63802;DHT22;49949;43.060;25.624;2022-07-17T07:09:07;29.10;52.50
63802;DHT22;49949;43.060;25.624;2022-07-17T07:11:33;29.10;52.50
63802;DHT22;49949;43.060;25.624;2022-07-17T07:13:59;29.30;51.50
63802;DHT22;49949;43.060;25.624;2022-07-17T07:16:24;29.40;51.20
63802;DHT22;49949;43.060;25.624;2022-07-17T07:18:50;29.50;51.00
63802;DHT22;49949;43.060;25.624;2022-07-17T07:21:16;29.20;52.30
63802;DHT22;49949;43.060;25.624;2022-07-17T07:23:42;29.00;50.80
63802;DHT22;49949;43.060;25.624;2022-07-17T07:26:08;28.80;50.30
63802;DHT22;49949;43.060;25.624;2022-07-17T07:28:33;28.30;53.00
63802;DHT22;49949;43.060;25.624;2022-07-17T07:30:59;28.40;52.60
63802;DHT22;49949;43.060;25.624;2022-07-17T07:33:25;28.80;52.20
63802;DHT22;49949;43.060;25.624;2022-07-17T07:35:51;29.10;51.80
63802;DHT22;49949;43.060;25.624;2022-07-17T07:38:17;29.00;50.60
63802;DHT22;49949;43.060;25.624;2022-07-17T07:40:42;28.90;50.50
63802;DHT22;49949;43.060;25.624;2022-07-17T07:43:08;28.60;52.80
63802;DHT22;49949;43.060;25.624;2022-07-17T07:45:34;29.00;51.20
63802;DHT22;49949;43.060;25.624;2022-07-17T07:48:00;29.10;50.30
63802;DHT22;49949;43.060;25.624;2022-07-17T07:50:26;29.00;50.70
63802;DHT22;49949;43.060;25.624;2022-07-17T07:52:54;29.00;50.70
63802;DHT22;49949;43.060;25.624;2022-07-17T07:55:20;28.90;50.70
63802;DHT22;49949;43.060;25.624;2022-07-17T07:57:50;29.10;51.20
63802;DHT22;49949;43.060;25.624;2022-07-17T08:00:26;29.10;49.80
63802;DHT22;49949;43.060;25.624;2022-07-17T08:02:51;29.00;49.80
63802;DHT22;49949;43.060;25.624;2022-07-17T08:05:17;29.00;49.70
63802;DHT22;49949;43.060;25.624;2022-07-17T08:07:43;29.10;49.80
63802;DHT22;49949;43.060;25.624;2022-07-17T08:10:08;29.10;47.90
63802;DHT22;49949;43.060;25.624;2022-07-17T08:12:34;29.20;48.20
63802;DHT22;49949;43.060;25.624;2022-07-17T08:15:00;29.70;47.00
63802;DHT22;49949;43.060;25.624;2022-07-17T08:17:26;29.90;44.50
63802;DHT22;49949;43.060;25.624;2022-07-17T08:19:51;29.80;45.10
63802;DHT22;49949;43.060;25.624;2022-07-17T08:22:17;30.00;46.50
63802;DHT22;49949;43.060;25.624;2022-07-17T08:24:43;30.30;45.30
63802;DHT22;49949;43.060;25.624;2022-07-17T08:27:09;30.40;44.10
63802;DHT22;49949;43.060;25.624;2022-07-17T08:29:34;30.30;43.40
63802;DHT22;49949;43.060;25.624;2022-07-17T08:32:00;30.00;41.30
63802;DHT22;49949;43.060;25.624;2022-07-17T08:34:25;30.10;40.40
63802;DHT22;49949;43.060;25.624;2022-07-17T08:36:51;30.20;42.40
63802;DHT22;49949;43.060;25.624;2022-07-17T08:39:17;30.00;41.80
63802;DHT22;49949;43.060;25.624;2022-07-17T08:41:43;30.40;38.70
63802;DHT22;49949;43.060;25.624;2022-07-17T08:44:09;30.70;37.30
63802;DHT22;49949;43.060;25.624;2022-07-17T08:46:39;30.90;37.20
63802;DHT22;49949;43.060;25.624;2022-07-17T08:49:06;31.40;37.10
63802;DHT22;49949;43.060;25.624;2022-07-17T08:51:33;31.40;37.20
63802;DHT22;49949;43.060;25.624;2022-07-17T08:53:59;31.10;37.50
63802;DHT22;49949;43.060;25.624;2022-07-17T08:56:26;31.50;36.60
63802;DHT22;49949;43.060;25.624;2022-07-17T08:58:52;31.80;35.90
63802;DHT22;49949;43.060;25.624;2022-07-17T09:01:19;31.20;36.90
63802;DHT22;49949;43.060;25.624;2022-07-17T09:04:03;31.50;37.40
63802;DHT22;49949;43.060;25.624;2022-07-17T09:06:37;32.10;36.30
63802;DHT22;49949;43.060;25.624;2022-07-17T09:09:12;32.30;35.80
63802;DHT22;49949;43.060;25.624;2022-07-17T09:11:49;32.30;35.10
63802;DHT22;49949;43.060;25.624;2022-07-17T09:14:16;32.60;34.10
63802;DHT22;49949;43.060;25.624;2022-07-17T09:22:13;32.30;33.30
63802;DHT22;49949;43.060;25.624;2022-07-17T09:24:54;32.30;32.50
63802;DHT22;49949;43.060;25.624;2022-07-17T09:30:09;32.50;32.30
63802;DHT22;49949;43.060;25.624;2022-07-17T09:32:40;32.60;32.90
63802;DHT22;49949;43.060;25.624;2022-07-17T09:35:08;32.80;32.70
63802;DHT22;49949;43.060;25.624;2022-07-17T09:37:35;33.00;33.40
63802;DHT22;49949;43.060;25.624;2022-07-17T09:40:09;33.40;32.30
63802;DHT22;49949;43.060;25.624;2022-07-17T09:42:35;33.70;32.30
63802;DHT22;49949;43.060;25.624;2022-07-17T09:45:08;33.80;32.10
63802;DHT22;49949;43.060;25.624;2022-07-17T09:47:37;33.70;31.30
63802;DHT22;49949;43.060;25.624;2022-07-17T09:50:06;33.50;33.10
63802;DHT22;49949;43.060;25.624;2022-07-17T09:52:34;33.50;31.40
63802;DHT22;49949;43.060;25.624;2022-07-17T09:55:01;33.80;30.90
63802;DHT22;49949;43.060;25.624;2022-07-17T09:57:32;33.80;29.50
63802;DHT22;49949;43.060;25.624;2022-07-17T10:00:06;33.90;30.00
63802;DHT22;49949;43.060;25.624;2022-07-17T10:02:40;33.90;27.80
63802;DHT22;49949;43.060;25.624;2022-07-17T10:05:09;33.60;27.40
63802;DHT22;49949;43.060;25.624;2022-07-17T10:07:39;33.50;28.70
63802;DHT22;49949;43.060;25.624;2022-07-17T10:10:07;33.60;27.50
63802;DHT22;49949;43.060;25.624;2022-07-17T10:12:34;33.80;28.30
63802;DHT22;49949;43.060;25.624;2022-07-17T10:15:00;34.00;29.60
63802;DHT22;49949;43.060;25.624;2022-07-17T10:17:27;34.00;29.00
63802;DHT22;49949;43.060;25.624;2022-07-17T10:19:55;33.90;30.10
63802;DHT22;49949;43.060;25.624;2022-07-17T10:22:21;33.80;29.80
63802;DHT22;49949;43.060;25.624;2022-07-17T10:24:50;33.60;30.00
63802;DHT22;49949;43.060;25.624;2022-07-17T10:29:44;33.90;27.20
63802;DHT22;49949;43.060;25.624;2022-07-17T10:32:17;34.20;27.80
63802;DHT22;49949;43.060;25.624;2022-07-17T10:34:53;34.00;28.30
63802;DHT22;49949;43.060;25.624;2022-07-17T10:37:32;34.00;29.10
63802;DHT22;49949;43.060;25.624;2022-07-17T10:45:20;33.80;29.20
63802;DHT22;49949;43.060;25.624;2022-07-17T10:47:57;33.70;28.40
63802;DHT22;49949;43.060;25.624;2022-07-17T10:50:27;33.20;29.60
63802;DHT22;49949;43.060;25.624;2022-07-17T10:53:06;32.80;31.00
63802;DHT22;49949;43.060;25.624;2022-07-17T10:55:33;32.50;32.30
63802;DHT22;49949;43.060;25.624;2022-07-17T10:57:59;32.80;31.80
63802;DHT22;49949;43.060;25.624;2022-07-17T11:00:26;32.70;30.40
63802;DHT22;49949;43.060;25.624;2022-07-17T11:02:52;32.60;31.30
63802;DHT22;49949;43.060;25.624;2022-07-17T11:05:17;32.70;31.30
63802;DHT22;49949;43.060;25.624;2022-07-17T11:10:16;32.70;31.20
63802;DHT22;49949;43.060;25.624;2022-07-17T11:12:41;32.90;29.40
63802;DHT22;49949;43.060;25.624;2022-07-17T11:15:07;32.90;29.40
63802;DHT22;49949;43.060;25.624;2022-07-17T11:17:33;33.10;29.10
63802;DHT22;49949;43.060;25.624;2022-07-17T11:19:59;33.20;29.20
63802;DHT22;49949;43.060;25.624;2022-07-17T11:22:25;33.00;28.00
63802;DHT22;49949;43.060;25.624;2022-07-17T11:24:52;32.30;30.30
63802;DHT22;49949;43.060;25.624;2022-07-17T11:27:28;32.20;30.30
63802;DHT22;49949;43.060;25.624;2022-07-17T11:29:57;32.40;30.40
63802;DHT22;49949;43.060;25.624;2022-07-17T11:32:23;32.60;29.30
63802;DHT22;49949;43.060;25.624;2022-07-17T11:34:51;32.40;29.00
63802;DHT22;49949;43.060;25.624;2022-07-17T11:37:16;32.00;29.50
63802;DHT22;49949;43.060;25.624;2022-07-17T11:39:49;32.00;29.30
63802;DHT22;49949;43.060;25.624;2022-07-17T11:42:20;32.10;29.20
63802;DHT22;49949;43.060;25.624;2022-07-17T11:44:51;32.20;28.80
63802;DHT22;49949;43.060;25.624;2022-07-17T11:47:22;32.30;28.80
63802;DHT22;49949;43.060;25.624;2022-07-17T11:49:48;32.50;29.30
63802;DHT22;49949;43.060;25.624;2022-07-17T11:52:16;32.50;28.10
63802;DHT22;49949;43.060;25.624;2022-07-17T11:54:53;32.50;28.50
63802;DHT22;49949;43.060;25.624;2022-07-17T11:57:27;32.80;27.80
63802;DHT22;49949;43.060;25.624;2022-07-17T11:59:53;32.80;27.60
63802;DHT22;49949;43.060;25.624;2022-07-17T12:02:22;32.50;28.50
63802;DHT22;49949;43.060;25.624;2022-07-17T12:04:59;32.60;28.60
63802;DHT22;49949;43.060;25.624;2022-07-17T12:07:42;32.90;28.00
63802;DHT22;49949;43.060;25.624;2022-07-17T12:10:18;33.20;27.30
63802;DHT22;49949;43.060;25.624;2022-07-17T12:12:58;33.40;27.30
63802;DHT22;49949;43.060;25.624;2022-07-17T12:18:00;33.30;26.80
63802;DHT22;49949;43.060;25.624;2022-07-17T12:20:40;33.20;27.30
63802;DHT22;49949;43.060;25.624;2022-07-17T12:23:06;33.00;27.90
63802;DHT22;49949;43.060;25.624;2022-07-17T12:25:32;32.60;28.80
63802;DHT22;49949;43.060;25.624;2022-07-17T12:27:57;32.30;29.30
63802;DHT22;49949;43.060;25.624;2022-07-17T12:30:23;32.50;29.80
63802;DHT22;49949;43.060;25.624;2022-07-17T12:32:49;32.50;28.30
63802;DHT22;49949;43.060;25.624;2022-07-17T12:35:15;32.40;29.10
63802;DHT22;49949;43.060;25.624;2022-07-17T12:37:41;32.30;29.80
63802;DHT22;49949;43.060;25.624;2022-07-17T12:40:07;32.30;30.40
63802;DHT22;49949;43.060;25.624;2022-07-17T12:42:33;32.30;30.30
63802;DHT22;49949;43.060;25.624;2022-07-17T12:44:59;32.40;29.80
63802;DHT22;49949;43.060;25.624;2022-07-17T12:47:25;32.70;29.30
63802;DHT22;49949;43.060;25.624;2022-07-17T12:49:50;32.50;28.40
63802;DHT22;49949;43.060;25.624;2022-07-17T12:52:16;32.50;30.20
63802;DHT22;49949;43.060;25.624;2022-07-17T12:54:42;32.70;29.60
63802;DHT22;49949;43.060;25.624;2022-07-17T12:57:07;32.90;28.80
63802;DHT22;49949;43.060;25.624;2022-07-17T12:59:33;32.80;29.30
63802;DHT22;49949;43.060;25.624;2022-07-17T13:01:59;32.70;29.00
63802;DHT22;49949;43.060;25.624;2022-07-17T13:04:26;32.70;29.60
63802;DHT22;49949;43.060;25.624;2022-07-17T13:06:52;32.60;29.10
63802;DHT22;49949;43.060;25.624;2022-07-17T13:09:18;32.60;29.60
63802;DHT22;49949;43.060;25.624;2022-07-17T13:11:44;32.90;28.80
63802;DHT22;49949;43.060;25.624;2022-07-17T13:14:10;32.70;27.90
63802;DHT22;49949;43.060;25.624;2022-07-17T13:16:40;32.30;29.30
63802;DHT22;49949;43.060;25.624;2022-07-17T13:19:06;32.30;30.20
63802;DHT22;49949;43.060;25.624;2022-07-17T13:21:32;32.50;30.10
63802;DHT22;49949;43.060;25.624;2022-07-17T13:23:58;32.60;29.60
63802;DHT22;49949;43.060;25.624;2022-07-17T13:26:23;32.70;28.90
63802;DHT22;49949;43.060;25.624;2022-07-17T13:28:49;32.60;29.30
63802;DHT22;49949;43.060;25.624;2022-07-17T13:31:15;32.80;30.70
63802;DHT22;49949;43.060;25.624;2022-07-17T13:33:41;33.10;29.00
63802;DHT22;49949;43.060;25.624;2022-07-17T13:36:07;33.40;28.70
63802;DHT22;49949;43.060;25.624;2022-07-17T13:38:33;33.50;29.70
63802;DHT22;49949;43.060;25.624;2022-07-17T13:40:59;33.70;29.80
63802;DHT22;49949;43.060;25.624;2022-07-17T13:43:24;33.90;28.10
63802;DHT22;49949;43.060;25.624;2022-07-17T13:45:50;33.80;28.20
63802;DHT22;49949;43.060;25.624;2022-07-17T13:48:16;33.90;28.30
63802;DHT22;49949;43.060;25.624;2022-07-17T13:50:42;33.90;28.50
63802;DHT22;49949;43.060;25.624;2022-07-17T13:53:08;33.70;28.20
63802;DHT22;49949;43.060;25.624;2022-07-17T13:55:34;33.60;28.80
63802;DHT22;49949;43.060;25.624;2022-07-17T13:57:59;33.60;28.80
63802;DHT22;49949;43.060;25.624;2022-07-17T14:00:25;33.30;29.70
63802;DHT22;49949;43.060;25.624;2022-07-17T14:02:51;32.90;30.40
63802;DHT22;49949;43.060;25.624;2022-07-17T14:05:17;32.90;30.20
63802;DHT22;49949;43.060;25.624;2022-07-17T14:07:42;32.90;31.00
63802;DHT22;49949;43.060;25.624;2022-07-17T14:10:09;32.90;31.10
63802;DHT22;49949;43.060;25.624;2022-07-17T14:12:35;32.90;31.50
63802;DHT22;49949;43.060;25.624;2022-07-17T14:15:02;32.90;31.60
63802;DHT22;49949;43.060;25.624;2022-07-17T14:17:28;33.00;31.20
63802;DHT22;49949;43.060;25.624;2022-07-17T14:19:53;33.30;31.10
63802;DHT22;49949;43.060;25.624;2022-07-17T14:22:19;33.40;30.10
63802;DHT22;49949;43.060;25.624;2022-07-17T14:24:45;33.60;29.80
63802;DHT22;49949;43.060;25.624;2022-07-17T14:27:11;33.50;30.10
63802;DHT22;49949;43.060;25.624;2022-07-17T14:29:36;33.40;30.10
63802;DHT22;49949;43.060;25.624;2022-07-17T14:32:02;33.40;30.00
63802;DHT22;49949;43.060;25.624;2022-07-17T14:34:28;33.40;29.60
63802;DHT22;49949;43.060;25.624;2022-07-17T14:36:54;33.20;30.40
63802;DHT22;49949;43.060;25.624;2022-07-17T14:39:19;33.20;30.30
63802;DHT22;49949;43.060;25.624;2022-07-17T14:41:45;33.30;30.30
63802;DHT22;49949;43.060;25.624;2022-07-17T14:44:11;33.40;29.90
63802;DHT22;49949;43.060;25.624;2022-07-17T14:46:37;33.20;29.30
63802;DHT22;49949;43.060;25.624;2022-07-17T14:49:03;33.00;30.20
63802;DHT22;49949;43.060;25.624;2022-07-17T14:51:28;32.80;30.00
63802;DHT22;49949;43.060;25.624;2022-07-17T14:53:54;32.80;29.60
63802;DHT22;49949;43.060;25.624;2022-07-17T14:56:20;32.60;29.70
63802;DHT22;49949;43.060;25.624;2022-07-17T14:58:46;32.50;29.80
63802;DHT22;49949;43.060;25.624;2022-07-17T15:01:11;32.50;29.80
63802;DHT22;49949;43.060;25.624;2022-07-17T15:03:37;32.40;30.00
63802;DHT22;49949;43.060;25.624;2022-07-17T15:06:03;32.50;30.60
63802;DHT22;49949;43.060;25.624;2022-07-17T15:08:29;32.60;30.20
63802;DHT22;49949;43.060;25.624;2022-07-17T15:10:56;32.50;28.50
63802;DHT22;49949;43.060;25.624;2022-07-17T15:13:22;32.40;29.30
63802;DHT22;49949;43.060;25.624;2022-07-17T15:15:48;32.60;28.60
63802;DHT22;49949;43.060;25.624;2022-07-17T15:18:14;32.70;27.80
63802;DHT22;49949;43.060;25.624;2022-07-17T15:20:40;32.80;27.00
63802;DHT22;49949;43.060;25.624;2022-07-17T15:23:06;32.90;27.10
63802;DHT22;49949;43.060;25.624;2022-07-17T15:25:32;32.60;27.30
63802;DHT22;49949;43.060;25.624;2022-07-17T15:27:58;32.50;27.10
63802;DHT22;49949;43.060;25.624;2022-07-17T15:30:23;32.50;27.80
63802;DHT22;49949;43.060;25.624;2022-07-17T15:32:49;32.60;27.50